Time;durP1;ratioP1;P1;durP2;ratioP2;P2;SDS_P1;SDS_P2;PMS_P1;PMS_P2;Temp;Humidity;BMP_temperature;BMP_pressure;BME280_temperature;BME280_humidity;BME280_pressure;Samples;Min_cycle;Max_cycle;Signal;HPM_P1;HPM_P2
2023/11/07 00:01:08;;;;;;;2.13;1.53;;;10.30;98.00;;;;;;4995033;28;20488;-67
2023/11/07 00:03:35;;;;;;;1.93;1.40;;;10.30;98.00;;;;;;4994311;28;20450;-67
2023/11/07 00:06:03;;;;;;;2.00;1.30;;;10.30;98.00;;;;;;4994005;28;20457;-67
2023/11/07 00:08:31;;;;;;;1.40;1.40;;;10.30;98.00;;;;;;4995641;28;20464;-67
2023/11/07 00:10:58;;;;;;;1.40;1.27;;;10.20;98.00;;;;;;4995466;28;20465;-67
2023/11/07 00:13:25;;;;;;;4.33;1.33;;;10.20;98.00;;;;;;4995334;28;20456;-67
2023/11/07 00:15:52;;;;;;;1.40;1.20;;;10.30;98.00;;;;;;4995349;28;20818;-67
2023/11/07 00:18:20;;;;;;;1.50;1.23;;;10.30;98.00;;;;;;4995445;28;20455;-67
2023/11/07 00:20:47;;;;;;;1.70;1.30;;;10.20;98.00;;;;;;4994005;28;20854;-67
2023/11/07 00:23:16;;;;;;;1.70;1.23;;;10.30;98.00;;;;;;4994112;28;20528;-67
2023/11/07 00:25:45;;;;;;;1.40;1.30;;;10.30;98.00;;;;;;4995381;28;20463;-67
2023/11/07 00:28:12;;;;;;;2.17;1.40;;;10.30;98.00;;;;;;4994104;28;20513;-67
2023/11/07 00:30:40;;;;;;;1.70;1.30;;;10.20;98.00;;;;;;4995279;28;20459;-67
2023/11/07 00:33:07;;;;;;;1.43;1.30;;;10.20;98.00;;;;;;4994037;28;20462;-67
2023/11/07 00:35:34;;;;;;;1.63;1.40;;;10.30;98.00;;;;;;4995166;28;20449;-67
2023/11/07 00:38:01;;;;;;;1.57;1.30;;;10.20;98.00;;;;;;4993888;28;20460;-66
2023/11/07 00:40:29;;;;;;;1.70;1.30;;;10.20;98.00;;;;;;4993791;28;20470;-67
2023/11/07 00:42:58;;;;;;;1.90;1.40;;;10.20;98.00;;;;;;4993717;28;21001;-67
2023/11/07 00:45:25;;;;;;;2.47;1.40;;;10.20;98.00;;;;;;4995016;28;20458;-67
2023/11/07 00:47:52;;;;;;;1.47;1.30;;;10.10;98.00;;;;;;4994527;28;20450;-67
2023/11/07 00:50:20;;;;;;;2.17;1.50;;;10.20;98.00;;;;;;4992852;28;20485;-67
2023/11/07 00:52:47;;;;;;;2.70;1.30;;;10.10;98.00;;;;;;4994253;28;21262;-67
2023/11/07 00:55:14;;;;;;;2.20;1.27;;;10.10;98.00;;;;;;4994286;28;20493;-67
2023/11/07 00:57:42;;;;;;;1.80;1.37;;;10.20;98.00;;;;;;4994279;28;20454;-68
2023/11/07 01:00:13;;;;;;;1.47;1.10;;;10.10;98.00;;;;;;4994335;28;21220;-67
2023/11/07 01:02:40;;;;;;;2.83;1.17;;;10.10;98.00;;;;;;4993900;28;20486;-67
2023/11/07 01:05:08;;;;;;;1.30;1.10;;;10.20;98.00;;;;;;4993988;28;20461;-67
2023/11/07 01:07:35;;;;;;;2.83;1.47;;;10.20;98.00;;;;;;4994273;28;20513;-67
2023/11/07 01:10:02;;;;;;;2.20;1.40;;;10.30;98.00;;;;;;4994173;28;20463;-67
2023/11/07 01:12:29;;;;;;;3.83;1.40;;;10.20;98.00;;;;;;4993362;28;20942;-67
2023/11/07 01:14:56;;;;;;;1.63;1.20;;;10.20;98.00;;;;;;4994149;28;20452;-67
2023/11/07 01:17:26;;;;;;;3.00;1.30;;;10.10;98.00;;;;;;4994140;28;20930;-67
2023/11/07 01:19:53;;;;;;;1.80;1.40;;;10.20;98.00;;;;;;4994186;28;20453;-66
2023/11/07 01:22:21;;;;;;;1.70;1.30;;;10.10;98.00;;;;;;4992704;28;20480;-67
2023/11/07 01:24:48;;;;;;;9.67;1.60;;;10.10;98.00;;;;;;4992782;28;20470;-67
2023/11/07 01:27:15;;;;;;;2.10;1.40;;;10.00;98.00;;;;;;4993672;28;20460;-67
2023/11/07 01:29:42;;;;;;;1.80;1.13;;;10.00;98.00;;;;;;4993776;28;20458;-67
2023/11/07 01:32:09;;;;;;;2.13;1.30;;;10.00;98.00;;;;;;4994052;28;20560;-67
2023/11/07 01:34:37;;;;;;;1.40;1.33;;;10.00;98.00;;;;;;4992901;28;20475;-66
2023/11/07 01:37:05;;;;;;;1.40;1.27;;;9.90;98.00;;;;;;4993984;28;21039;-67
2023/11/07 01:39:33;;;;;;;2.43;1.50;;;9.90;98.00;;;;;;4993830;28;20481;-66
2023/11/07 01:42:00;;;;;;;1.80;1.33;;;9.90;98.00;;;;;;4993514;28;20492;-67
2023/11/07 01:44:29;;;;;;;1.60;1.30;;;9.90;98.00;;;;;;4994232;28;20460;-67
2023/11/07 01:46:56;;;;;;;2.50;1.30;;;9.90;98.00;;;;;;4993732;28;20487;-67
2023/11/07 01:49:26;;;;;;;1.57;1.30;;;9.90;98.00;;;;;;4993638;28;20966;-67
2023/11/07 01:51:57;;;;;;;2.00;1.40;;;9.90;98.00;;;;;;4992409;28;20519;-67
2023/11/07 01:54:29;;;;;;;2.60;1.20;;;9.90;98.00;;;;;;4993578;28;20456;-67
2023/11/07 01:56:56;;;;;;;3.80;1.57;;;9.80;98.00;;;;;;4993619;28;20461;-67
2023/11/07 01:59:25;;;;;;;4.30;1.40;;;9.80;98.00;;;;;;4993573;28;20484;-67
2023/11/07 02:01:55;;;;;;;1.30;1.20;;;9.80;98.00;;;;;;4993342;28;20489;-67
2023/11/07 02:04:23;;;;;;;4.40;1.67;;;9.80;98.00;;;;;;4992256;28;20488;-67
2023/11/07 02:06:50;;;;;;;1.60;1.40;;;9.80;98.00;;;;;;4993583;28;20466;-67
2023/11/07 02:09:22;;;;;;;5.57;1.67;;;9.70;98.00;;;;;;4992227;28;21017;-67
2023/11/07 02:11:49;;;;;;;1.40;1.20;;;9.70;98.00;;;;;;4992006;28;20478;-67
2023/11/07 02:14:28;;;;;;;1.40;1.20;;;9.70;98.00;;;;;;4993332;28;20539;-67
2023/11/07 02:16:56;;;;;;;2.60;1.30;;;9.50;98.00;;;;;;4992123;28;20465;-67
2023/11/07 02:19:23;;;;;;;4.20;1.50;;;9.50;98.00;;;;;;4991884;28;20463;-67
2023/11/07 02:21:53;;;;;;;2.80;1.70;;;9.40;98.00;;;;;;4991800;28;20509;-67
2023/11/07 02:24:21;;;;;;;1.80;1.23;;;9.30;98.00;;;;;;4992072;28;20492;-67
2023/11/07 02:26:48;;;;;;;5.50;1.50;;;9.30;98.00;;;;;;4993252;28;20502;-67
2023/11/07 02:29:15;;;;;;;1.90;1.57;;;9.20;98.00;;;;;;4992831;28;21160;-67
2023/11/07 02:31:42;;;;;;;1.60;1.20;;;9.10;98.00;;;;;;4993125;28;20467;-67
2023/11/07 02:34:11;;;;;;;1.80;1.50;;;8.80;98.00;;;;;;4991815;28;20457;-67
2023/11/07 02:36:39;;;;;;;2.00;1.50;;;8.70;98.00;;;;;;4992693;28;20822;-67
2023/11/07 02:39:07;;;;;;;5.70;1.83;;;8.60;98.00;;;;;;4991457;28;20451;-67
2023/11/07 02:41:37;;;;;;;2.57;1.40;;;8.60;98.00;;;;;;4992518;28;20481;-67
2023/11/07 02:44:04;;;;;;;1.73;1.30;;;8.50;98.00;;;;;;4992506;28;20448;-67
2023/11/07 02:46:31;;;;;;;2.87;1.43;;;8.40;98.00;;;;;;4992356;28;20461;-67
2023/11/07 02:48:58;;;;;;;1.43;1.20;;;8.40;98.00;;;;;;4991033;28;20549;-67
2023/11/07 02:51:26;;;;;;;1.30;1.30;;;8.40;98.00;;;;;;4992393;28;20900;-67
2023/11/07 02:53:53;;;;;;;1.30;1.20;;;8.30;98.00;;;;;;4992612;28;20456;-67
2023/11/07 02:56:25;;;;;;;2.20;1.50;;;8.30;98.00;;;;;;4992232;28;20488;-67
2023/11/07 02:58:53;;;;;;;4.57;2.20;;;8.40;98.00;;;;;;4991157;28;20448;-67
2023/11/07 03:01:21;;;;;;;2.77;1.57;;;8.50;98.00;;;;;;4992259;28;20452;-67
2023/11/07 03:03:49;;;;;;;1.50;1.30;;;8.50;98.00;;;;;;4992392;28;20505;-67
2023/11/07 03:06:17;;;;;;;3.77;1.50;;;8.50;98.00;;;;;;4992171;28;20453;-67
2023/11/07 03:08:44;;;;;;;2.20;1.40;;;8.50;98.00;;;;;;4992140;28;20494;-67
2023/11/07 03:11:11;;;;;;;1.80;1.40;;;8.60;98.00;;;;;;4992149;28;20446;-67
2023/11/07 03:13:39;;;;;;;1.77;1.40;;;8.60;98.00;;;;;;4992361;28;20552;-67
2023/11/07 03:16:10;;;;;;;2.83;1.47;;;8.50;98.00;;;;;;4992271;28;20460;-67
2023/11/07 03:18:37;;;;;;;1.90;1.37;;;8.40;98.00;;;;;;4992301;28;20797;-67
2023/11/07 03:21:09;;;;;;;2.87;1.23;;;8.30;98.00;;;;;;4990935;28;20511;-67
2023/11/07 03:23:36;;;;;;;1.93;1.53;;;8.40;98.00;;;;;;4991002;28;20489;-67
2023/11/07 03:26:04;;;;;;;1.30;1.30;;;8.50;98.00;;;;;;4992235;28;21034;-67
2023/11/07 03:28:31;;;;;;;1.80;1.40;;;8.70;98.00;;;;;;4990970;28;20444;-67
2023/11/07 03:30:58;;;;;;;1.83;1.37;;;8.80;98.00;;;;;;4992106;28;20851;-67
2023/11/07 03:33:27;;;;;;;1.50;1.20;;;8.70;98.00;;;;;;4992274;28;20487;-67
2023/11/07 03:35:56;;;;;;;2.17;1.33;;;8.70;98.00;;;;;;4995287;28;20453;-67
2023/11/07 03:38:23;;;;;;;1.80;1.40;;;8.80;98.00;;;;;;4996157;28;20463;-67
2023/11/07 03:40:51;;;;;;;4.43;1.30;;;8.80;98.00;;;;;;4995817;28;20965;-67
2023/11/07 03:43:18;;;;;;;2.30;1.40;;;8.80;98.00;;;;;;4996034;28;20498;-67
2023/11/07 03:45:45;;;;;;;2.27;1.40;;;8.90;98.00;;;;;;4996065;28;20804;-67
2023/11/07 03:48:13;;;;;;;1.40;1.30;;;8.90;98.00;;;;;;4994895;28;20445;-67
2023/11/07 03:50:43;;;;;;;2.70;1.67;;;9.00;98.00;;;;;;4994279;28;20457;-67
2023/11/07 03:53:10;;;;;;;3.00;1.60;;;9.10;98.00;;;;;;4995959;28;20511;-67
2023/11/07 03:55:37;;;;;;;3.57;1.97;;;9.20;98.00;;;;;;4995856;28;20935;-67
2023/11/07 03:58:05;;;;;;;3.50;2.03;;;9.20;98.00;;;;;;4996161;28;20467;-67
2023/11/07 04:00:32;;;;;;;2.80;1.60;;;9.00;98.00;;;;;;4995897;28;20460;-67
2023/11/07 04:03:00;;;;;;;1.80;1.50;;;8.80;98.00;;;;;;4995586;28;21041;-67
2023/11/07 04:05:28;;;;;;;2.50;1.50;;;8.70;98.00;;;;;;4995914;28;20448;-67
2023/11/07 04:07:57;;;;;;;1.57;1.20;;;8.70;98.00;;;;;;4995641;28;20452;-67
2023/11/07 04:10:25;;;;;;;1.93;1.40;;;8.70;98.00;;;;;;4995815;28;20452;-67
2023/11/07 04:12:52;;;;;;;2.10;1.30;;;8.70;98.00;;;;;;4994040;28;20487;-67
2023/11/07 04:15:21;;;;;;;2.03;1.30;;;8.70;98.00;;;;;;4995579;28;20463;-67
2023/11/07 04:17:49;;;;;;;2.30;1.43;;;8.80;98.00;;;;;;4994126;28;20448;-67
2023/11/07 04:20:16;;;;;;;1.57;1.40;;;8.80;98.00;;;;;;4993856;28;20452;-67
2023/11/07 04:22:43;;;;;;;4.57;1.90;;;9.00;98.00;;;;;;4995039;28;20488;-67
2023/11/07 04:25:15;;;;;;;3.30;1.40;;;8.90;98.00;;;;;;4995398;28;20858;-67
2023/11/07 04:27:44;;;;;;;1.77;1.20;;;8.90;98.00;;;;;;4995222;28;20487;-67
2023/11/07 04:30:17;;;;;;;1.93;1.40;;;8.90;98.00;;;;;;4994840;28;20457;-67
2023/11/07 04:32:44;;;;;;;4.00;1.50;;;8.90;98.00;;;;;;4994776;28;20471;-67
2023/11/07 04:35:15;;;;;;;2.90;1.67;;;9.00;98.00;;;;;;4995117;28;20460;-67
2023/11/07 04:37:43;;;;;;;1.40;1.27;;;9.00;98.00;;;;;;4994820;28;20479;-67
2023/11/07 04:40:12;;;;;;;1.60;1.30;;;9.00;98.00;;;;;;4994776;28;20551;-67
2023/11/07 04:42:40;;;;;;;2.50;1.47;;;9.00;98.00;;;;;;4994643;28;20491;-67
2023/11/07 04:45:11;;;;;;;1.30;1.20;;;9.00;98.00;;;;;;4994959;28;20450;-67
2023/11/07 04:47:38;;;;;;;1.73;1.23;;;9.00;98.00;;;;;;4993779;28;20498;-67
2023/11/07 04:50:06;;;;;;;3.20;1.50;;;9.00;98.00;;;;;;4993388;28;20478;-67
2023/11/07 04:52:34;;;;;;;1.80;1.37;;;9.10;98.00;;;;;;4994591;28;20965;-67
2023/11/07 04:55:02;;;;;;;1.60;1.30;;;9.00;98.00;;;;;;4994591;28;20512;-68
2023/11/07 04:57:32;;;;;;;11.07;1.60;;;9.00;98.00;;;;;;4994628;28;20607;-67
2023/11/07 04:59:59;;;;;;;1.80;1.30;;;8.90;98.00;;;;;;4994477;28;20449;-67
2023/11/07 05:02:26;;;;;;;3.40;1.50;;;8.80;98.00;;;;;;4994638;28;20994;-68
2023/11/07 05:04:53;;;;;;;1.67;1.30;;;8.80;98.00;;;;;;4994352;28;20463;-67
2023/11/07 05:07:20;;;;;;;1.80;1.40;;;8.90;98.00;;;;;;4994542;28;20467;-67
2023/11/07 05:09:47;;;;;;;2.60;1.40;;;8.80;98.00;;;;;;4994279;28;20457;-68
2023/11/07 05:12:14;;;;;;;2.50;1.60;;;8.70;98.00;;;;;;4993142;28;21066;-67
2023/11/07 05:14:43;;;;;;;1.50;1.30;;;8.70;98.00;;;;;;4994247;28;20537;-67
2023/11/07 05:17:10;;;;;;;1.30;1.23;;;8.70;98.00;;;;;;4994184;28;20456;-68
2023/11/07 05:19:37;;;;;;;1.60;1.43;;;8.60;98.00;;;;;;4994017;28;20459;-68
2023/11/07 05:22:04;;;;;;;1.57;1.30;;;8.50;98.00;;;;;;4993890;28;20515;-67
2023/11/07 05:24:32;;;;;;;1.90;1.40;;;8.50;98.00;;;;;;4993006;28;20455;-67
2023/11/07 05:26:59;;;;;;;2.13;1.57;;;8.40;98.00;;;;;;4994320;28;20965;-67
2023/11/07 05:29:26;;;;;;;1.83;1.50;;;8.40;98.00;;;;;;4993337;28;20472;-67
2023/11/07 05:31:55;;;;;;;4.10;2.03;;;8.40;98.00;;;;;;4992771;28;20971;-67
2023/11/07 05:34:22;;;;;;;2.37;1.90;;;8.40;98.00;;;;;;4994466;28;20459;-67
2023/11/07 05:36:49;;;;;;;2.30;2.10;;;8.40;98.00;;;;;;4993897;28;20460;-67
2023/11/07 05:39:16;;;;;;;4.47;2.17;;;8.40;98.00;;;;;;4994070;28;20459;-67
2023/11/07 05:41:43;;;;;;;4.10;2.20;;;8.30;98.00;;;;;;4993791;28;20535;-67
2023/11/07 05:44:11;;;;;;;3.40;2.10;;;8.30;98.00;;;;;;4993926;28;20573;-67
2023/11/07 05:46:39;;;;;;;2.47;1.90;;;8.20;98.00;;;;;;4993970;28;20535;-67
2023/11/07 05:49:07;;;;;;;5.73;2.10;;;8.10;98.00;;;;;;4992846;28;20929;-67
2023/11/07 05:51:34;;;;;;;3.57;2.07;;;7.90;98.00;;;;;;4993608;28;20521;-67
2023/11/07 05:54:01;;;;;;;4.03;2.27;;;7.90;98.00;;;;;;4993337;28;20461;-67
2023/11/07 05:56:28;;;;;;;5.57;2.47;;;7.70;98.00;;;;;;4993810;28;20467;-67
2023/11/07 05:58:55;;;;;;;3.20;2.10;;;7.70;98.00;;;;;;4993123;28;20467;-67
2023/11/07 06:01:23;;;;;;;3.37;2.40;;;7.30;98.00;;;;;;4975768;28;20464;-67
2023/11/07 06:03:51;;;;;;;3.30;2.17;;;7.30;98.00;;;;;;4993273;28;20497;-67
2023/11/07 06:06:20;;;;;;;3.80;2.00;;;7.30;98.00;;;;;;4993696;28;20460;-67
2023/11/07 06:08:48;;;;;;;2.70;2.00;;;7.30;98.00;;;;;;4993277;28;20770;-67
2023/11/07 06:11:15;;;;;;;5.37;2.50;;;7.30;98.00;;;;;;4991945;28;20550;-67
2023/11/07 06:13:42;;;;;;;4.97;1.87;;;7.10;98.00;;;;;;4993335;28;20531;-67
2023/11/07 06:16:10;;;;;;;3.70;2.10;;;7.20;98.00;;;;;;4993409;28;20462;-67
2023/11/07 06:18:39;;;;;;;8.30;3.57;;;7.10;98.00;;;;;;4993114;28;20468;-67
2023/11/07 06:21:06;;;;;;;5.80;3.03;;;6.90;98.00;;;;;;4993020;28;20456;-67
2023/11/07 06:23:34;;;;;;;6.63;3.53;;;6.90;98.00;;;;;;4993124;28;20980;-67
2023/11/07 06:26:01;;;;;;;6.27;3.43;;;6.90;98.00;;;;;;4993037;28;21008;-67
2023/11/07 06:28:29;;;;;;;5.93;2.60;;;6.90;98.00;;;;;;4993196;28;20466;-67
2023/11/07 06:30:56;;;;;;;2.60;1.90;;;6.80;98.00;;;;;;4992724;28;20566;-67
2023/11/07 06:33:23;;;;;;;3.53;2.00;;;6.70;98.00;;;;;;4992950;28;20470;-67
2023/11/07 06:35:50;;;;;;;3.20;1.93;;;6.70;98.00;;;;;;4992779;28;20870;-67
2023/11/07 06:38:18;;;;;;;3.57;2.10;;;6.80;98.00;;;;;;4992994;28;20468;-67
2023/11/07 06:40:47;;;;;;;3.80;2.00;;;6.90;98.00;;;;;;4992723;28;20877;-67
2023/11/07 06:43:14;;;;;;;3.50;1.90;;;6.80;98.00;;;;;;4993041;28;20491;-67
2023/11/07 06:45:41;;;;;;;1.80;1.60;;;6.70;98.00;;;;;;4991536;28;20454;-67
2023/11/07 06:48:08;;;;;;;7.67;2.13;;;6.70;98.00;;;;;;4991688;28;20458;-67
2023/11/07 06:50:37;;;;;;;3.23;1.77;;;6.60;98.00;;;;;;4992625;28;20521;-67
2023/11/07 06:53:04;;;;;;;3.00;1.73;;;6.60;98.00;;;;;;4992697;28;20459;-67
2023/11/07 06:55:34;;;;;;;2.17;1.70;;;6.60;98.00;;;;;;4992053;28;20519;-67
2023/11/07 06:58:03;;;;;;;3.23;2.00;;;6.70;98.00;;;;;;4991836;28;21039;-62
2023/11/07 07:00:30;;;;;;;3.07;2.13;;;6.80;98.00;;;;;;4991918;28;20461;-62
2023/11/07 07:02:58;;;;;;;2.40;1.80;;;6.90;98.00;;;;;;4991220;28;20493;-62
2023/11/07 07:05:26;;;;;;;2.77;1.80;;;6.80;98.00;;;;;;4992706;28;20450;-62
2023/11/07 07:07:53;;;;;;;8.47;3.80;;;6.70;98.00;;;;;;4992635;28;20452;-63
2023/11/07 07:10:31;;;;;;;6.70;3.60;;;6.70;98.00;;;;;;4992226;28;20521;-62
2023/11/07 07:12:58;;;;;;;3.90;2.47;;;6.70;98.00;;;;;;4992900;28;20463;-62
2023/11/07 07:15:27;;;;;;;2.80;2.10;;;6.70;98.00;;;;;;4992670;28;21111;-62
2023/11/07 07:17:54;;;;;;;2.20;1.60;;;6.80;98.00;;;;;;4992471;28;20793;-62
2023/11/07 07:20:21;;;;;;;1.90;1.70;;;7.00;98.00;;;;;;4992651;28;20466;-62
2023/11/07 07:22:47;;;;;;;3.37;2.07;;;7.10;98.00;;;;;;4992505;28;20462;-63
2023/11/07 07:25:20;;;;;;;3.10;2.27;;;7.20;98.00;;;;;;4992467;28;20852;-62
2023/11/07 07:27:48;;;;;;;4.37;2.40;;;7.60;98.00;;;;;;4992651;28;20490;-62
2023/11/07 07:30:20;;;;;;;7.37;3.30;;;7.80;98.00;;;;;;4992325;28;20778;-62
2023/11/07 07:32:49;;;;;;;6.00;3.07;;;7.90;98.00;;;;;;4992264;28;20865;-62
2023/11/07 07:35:20;;;;;;;7.10;3.67;;;7.80;98.00;;;;;;4991783;28;20942;-63
2023/11/07 07:37:51;;;;;;;10.37;5.23;;;7.80;98.00;;;;;;4991764;28;20454;-62
2023/11/07 07:40:24;;;;;;;9.13;4.43;;;7.80;98.00;;;;;;4990596;28;20797;-62
2023/11/07 07:42:53;;;;;;;3.83;2.90;;;7.80;98.00;;;;;;4990480;28;20530;-62
2023/11/07 07:45:21;;;;;;;6.77;3.30;;;7.90;98.00;;;;;;4991824;28;20459;-63
2023/11/07 07:47:49;;;;;;;7.60;3.30;;;8.00;98.00;;;;;;4991344;28;20459;-63
2023/11/07 07:50:18;;;;;;;10.70;2.97;;;8.00;98.00;;;;;;4991355;28;20463;-62
2023/11/07 07:52:45;;;;;;;5.20;3.13;;;8.10;98.00;;;;;;4991534;28;20543;-62
2023/11/07 07:55:12;;;;;;;13.83;3.50;;;8.10;98.00;;;;;;4991777;28;20462;-62
2023/11/07 07:57:41;;;;;;;19.80;4.53;;;8.10;98.00;;;;;;4992056;28;20840;-62
2023/11/07 08:00:11;;;;;;;8.13;3.73;;;8.10;98.00;;;;;;4991875;28;20451;-62
2023/11/07 08:02:39;;;;;;;7.00;2.53;;;8.30;98.00;;;;;;4991559;28;20976;-63
2023/11/07 08:05:09;;;;;;;2.63;1.83;;;8.50;98.00;;;;;;4991971;28;21013;-63
2023/11/07 08:07:36;;;;;;;2.40;1.77;;;8.70;98.00;;;;;;4992332;28;20455;-63
2023/11/07 08:10:09;;;;;;;1.47;1.40;;;8.90;98.00;;;;;;4992027;28;20551;-63
2023/11/07 08:12:37;;;;;;;1.67;1.57;;;9.10;98.00;;;;;;4990892;28;20460;-62
2023/11/07 08:15:07;;;;;;;1.80;1.40;;;9.40;98.00;;;;;;4992092;28;20455;-62
2023/11/07 08:17:35;;;;;;;4.00;2.10;;;9.60;98.00;;;;;;4990747;28;20826;-62
2023/11/07 08:20:03;;;;;;;1.97;1.43;;;9.70;98.00;;;;;;4992075;28;20451;-63
2023/11/07 08:22:32;;;;;;;2.73;1.73;;;9.90;98.00;;;;;;4995404;28;20451;-62
2023/11/07 08:24:59;;;;;;;2.23;1.47;;;10.00;98.00;;;;;;4995320;28;20495;-63
2023/11/07 08:27:26;;;;;;;2.00;1.47;;;10.10;98.00;;;;;;4995134;28;20452;-63
2023/11/07 08:29:53;;;;;;;1.60;1.53;;;10.20;98.00;;;;;;4994186;28;20465;-63
2023/11/07 08:32:22;;;;;;;3.27;1.60;;;10.20;98.00;;;;;;4995080;28;20542;-62
2023/11/07 08:34:49;;;;;;;4.53;2.20;;;10.30;98.00;;;;;;4994184;28;20450;-63
2023/11/07 08:37:16;;;;;;;1.83;1.57;;;10.30;98.00;;;;;;4993996;28;20448;-63
2023/11/07 08:39:44;;;;;;;2.53;1.57;;;10.40;98.00;;;;;;4995176;28;20551;-63
2023/11/07 08:42:12;;;;;;;5.50;1.60;;;10.40;98.00;;;;;;4994978;28;20456;-63
2023/11/07 08:44:39;;;;;;;1.70;1.43;;;10.60;98.00;;;;;;4993825;28;20495;-63
2023/11/07 08:47:06;;;;;;;2.70;1.43;;;10.60;98.00;;;;;;4993778;28;20457;-62
2023/11/07 08:49:34;;;;;;;2.53;1.40;;;10.60;98.00;;;;;;4994621;28;20551;-62
2023/11/07 08:52:04;;;;;;;2.07;1.80;;;10.70;98.00;;;;;;4994721;28;20470;-63
2023/11/07 08:54:36;;;;;;;2.70;1.70;;;10.70;98.00;;;;;;4994627;28;20999;-62
2023/11/07 08:57:05;;;;;;;3.43;1.63;;;10.80;98.00;;;;;;4994675;28;20459;-63
2023/11/07 08:59:32;;;;;;;2.30;1.70;;;10.80;98.00;;;;;;4994767;28;20457;-63
2023/11/07 09:01:59;;;;;;;2.77;1.57;;;10.80;98.00;;;;;;4994823;28;20815;-62
2023/11/07 09:04:26;;;;;;;1.93;1.40;;;10.90;98.00;;;;;;4994810;28;20963;-63
2023/11/07 09:06:53;;;;;;;2.03;1.60;;;10.90;98.00;;;;;;4994660;28;20454;-63
2023/11/07 09:09:23;;;;;;;1.90;1.53;;;11.00;98.00;;;;;;4982113;28;20463;-63
2023/11/07 09:11:50;;;;;;;5.53;1.60;;;11.00;98.00;;;;;;4974537;28;20457;-63
2023/11/07 09:14:19;;;;;;;2.07;1.63;;;11.00;98.00;;;;;;4982288;28;20467;-63
2023/11/07 09:16:47;;;;;;;4.73;1.47;;;11.10;98.00;;;;;;4993970;28;20490;-63
2023/11/07 09:19:18;;;;;;;2.10;1.50;;;11.10;98.00;;;;;;4993170;28;20490;-63
2023/11/07 09:21:45;;;;;;;2.43;1.50;;;11.10;98.00;;;;;;4993887;28;20788;-63
2023/11/07 09:24:12;;;;;;;2.80;1.87;;;11.20;98.00;;;;;;4994215;28;20485;-63
2023/11/07 09:26:39;;;;;;;2.37;1.80;;;11.30;98.00;;;;;;4994144;28;20462;-63
2023/11/07 09:29:08;;;;;;;5.40;2.77;;;11.30;98.00;;;;;;4993757;28;20468;-63
2023/11/07 09:31:36;;;;;;;3.10;1.70;;;11.20;98.00;;;;;;4989849;28;20472;-63
2023/11/07 09:34:04;;;;;;;4.50;1.93;;;11.20;98.00;;;;;;4993870;28;20542;-63
2023/11/07 09:36:31;;;;;;;2.07;1.57;;;11.10;98.00;;;;;;4993581;28;21138;-63
2023/11/07 09:39:01;;;;;;;2.33;2.00;;;11.20;98.00;;;;;;4993579;28;20801;-63
2023/11/07 09:41:28;;;;;;;2.10;1.80;;;11.30;98.00;;;;;;4993436;28;20455;-62
2023/11/07 09:43:55;;;;;;;2.00;1.70;;;11.30;98.00;;;;;;4993537;28;20493;-63
2023/11/07 09:46:24;;;;;;;2.70;1.77;;;11.40;98.00;;;;;;4993586;28;20462;-63
2023/11/07 09:48:53;;;;;;;2.67;1.97;;;11.40;98.00;;;;;;4993624;28;20461;-63
2023/11/07 09:51:22;;;;;;;2.27;1.50;;;11.40;98.00;;;;;;4990059;28;20462;-62
2023/11/07 09:53:51;;;;;;;2.03;1.60;;;11.50;98.00;;;;;;4993748;28;20454;-63
2023/11/07 09:56:19;;;;;;;1.97;1.50;;;11.60;98.00;;;;;;4993568;28;20544;-63
2023/11/07 09:58:51;;;;;;;1.57;1.40;;;11.70;98.00;;;;;;4993585;28;20469;-63
2023/11/07 10:01:21;;;;;;;2.60;1.77;;;11.80;98.00;;;;;;4993313;28;20867;-64
2023/11/07 10:03:50;;;;;;;2.80;1.80;;;12.50;98.00;;;;;;4993403;28;20539;-63
2023/11/07 10:06:19;;;;;;;2.67;1.70;;;12.80;98.00;;;;;;4993366;28;20461;-63
2023/11/07 10:08:47;;;;;;;2.10;1.60;;;12.80;98.00;;;;;;4992808;28;20459;-63
2023/11/07 10:11:15;;;;;;;2.23;1.50;;;12.70;98.00;;;;;;4993251;28;20486;-63
2023/11/07 10:14:00;;;;;;;3.00;1.67;;;12.60;98.00;;;;;;4992008;28;20453;-63
2023/11/07 10:16:37;;;;;;;3.40;1.60;;;12.40;98.00;;;;;;4993161;28;20486;-63
2023/11/07 10:19:04;;;;;;;2.00;1.53;;;12.50;98.00;;;;;;4993244;28;20924;-64
2023/11/07 10:21:34;;;;;;;1.97;1.50;;;12.60;98.00;;;;;;4993161;28;20496;-63
2023/11/07 10:24:01;;;;;;;2.60;1.57;;;12.60;98.00;;;;;;4993038;28;20485;-62
2023/11/07 10:26:30;;;;;;;2.00;1.57;;;12.60;98.00;;;;;;4992889;28;20487;-63
2023/11/07 10:29:13;;;;;;;1.57;1.30;;;12.70;98.00;;;;;;4993012;28;20532;-63
2023/11/07 10:31:43;;;;;;;1.90;1.60;;;12.70;98.00;;;;;;4992989;28;20810;-63
2023/11/07 10:34:16;;;;;;;2.23;1.50;;;12.80;98.00;;;;;;4991762;28;20542;-63
2023/11/07 10:36:45;;;;;;;1.80;1.50;;;12.80;98.00;;;;;;4992950;28;21065;-63
2023/11/07 10:39:17;;;;;;;1.77;1.60;;;12.80;98.00;;;;;;4993115;28;20460;-63
2023/11/07 10:41:45;;;;;;;1.70;1.43;;;12.90;98.00;;;;;;4992306;28;20451;-63
2023/11/07 10:44:25;;;;;;;1.87;1.53;;;12.90;98.00;;;;;;4991218;28;20481;-63
2023/11/07 10:46:54;;;;;;;1.73;1.43;;;12.90;98.00;;;;;;4992880;28;20454;-63
2023/11/07 10:49:23;;;;;;;1.80;1.63;;;13.00;98.00;;;;;;4992921;28;20892;-63
2023/11/07 10:51:52;;;;;;;2.50;2.00;;;13.00;98.00;;;;;;4992640;28;20521;-63
2023/11/07 10:54:20;;;;;;;2.00;1.60;;;13.20;98.00;;;;;;4992641;28;20548;-63
2023/11/07 10:56:49;;;;;;;1.30;1.30;;;13.40;98.00;;;;;;4992751;28;20474;-63
2023/11/07 10:59:20;;;;;;;2.73;1.47;;;13.60;98.00;;;;;;4992526;28;20550;-62
2023/11/07 11:01:51;;;;;;;4.47;1.60;;;13.90;98.00;;;;;;4992144;28;20453;-62
2023/11/07 11:04:20;;;;;;;1.50;1.47;;;14.00;98.00;;;;;;4992524;28;20492;-64
2023/11/07 11:06:57;;;;;;;14.17;2.50;;;14.00;98.00;;;;;;4992480;28;20474;-63
2023/11/07 11:09:25;;;;;;;1.83;1.20;;;13.90;98.00;;;;;;4992335;28;20459;-62
2023/11/07 11:11:54;;;;;;;3.30;1.50;;;13.70;98.00;;;;;;4992244;28;20478;-63
2023/11/07 11:14:23;;;;;;;1.70;1.43;;;13.60;98.00;;;;;;4992342;28;20447;-63
2023/11/07 11:16:51;;;;;;;1.60;1.40;;;13.40;98.00;;;;;;4992419;28;20467;-63
2023/11/07 11:19:32;;;;;;;1.90;1.47;;;13.50;98.00;;;;;;4992422;28;20481;-63
2023/11/07 11:22:10;;;;;;;1.80;1.53;;;13.40;98.00;;;;;;4992122;28;20562;-63
2023/11/07 11:25:03;;;;;;;1.40;1.30;;;13.40;98.00;;;;;;4991942;28;20851;-63
2023/11/07 11:27:36;;;;;;;1.40;1.27;;;13.40;98.00;;;;;;4992395;28;20549;-63
2023/11/07 11:30:05;;;;;;;1.50;1.20;;;13.30;98.00;;;;;;4990783;28;21152;-62
2023/11/07 11:32:32;;;;;;;1.93;1.30;;;13.10;98.00;;;;;;4992109;28;20492;-63
2023/11/07 11:35:33;;;;;;;3.37;2.03;;;13.00;98.00;;;;;;4992112;28;20825;-63
2023/11/07 11:38:13;;;;;;;1.30;1.23;;;12.90;98.00;;;;;;4992106;28;20521;-63
2023/11/07 11:40:54;;;;;;;1.90;1.40;;;12.80;98.00;;;;;;4992124;28;20461;-63
2023/11/07 11:43:23;;;;;;;1.70;1.20;;;12.60;98.00;;;;;;4990707;28;20533;-63
2023/11/07 11:45:52;;;;;;;1.30;1.20;;;12.70;98.00;;;;;;4992184;28;20493;-63
2023/11/07 11:48:41;;;;;;;1.20;1.03;;;12.50;98.00;;;;;;4990951;28;20589;-63
2023/11/07 11:51:32;;;;;;;1.40;1.23;;;12.30;98.00;;;;;;4991599;28;20558;-63
2023/11/07 11:54:01;;;;;;;1.20;1.20;;;12.10;98.00;;;;;;4992234;28;20936;-63
2023/11/07 11:56:28;;;;;;;1.20;1.10;;;12.00;98.00;;;;;;4994603;28;20453;-63
2023/11/07 11:59:05;;;;;;;1.30;1.00;;;11.90;98.00;;;;;;4995793;28;20511;-63
2023/11/07 12:01:49;;;;;;;1.70;1.20;;;11.80;98.00;;;;;;4995720;28;20545;-63
2023/11/07 12:04:29;;;;;;;1.63;1.20;;;11.90;98.00;;;;;;4995725;28;20499;-63
2023/11/07 12:07:20;;;;;;;1.20;1.20;;;11.90;98.00;;;;;;4995643;28;20548;-63
2023/11/07 12:09:50;;;;;;;1.60;1.20;;;11.70;98.00;;;;;;4975004;28;20789;-63
2023/11/07 12:12:18;;;;;;;1.40;1.10;;;11.60;98.00;;;;;;4975034;28;20464;-63
2023/11/07 12:14:51;;;;;;;1.70;1.20;;;11.50;98.00;;;;;;4976240;28;20881;-63
2023/11/07 12:17:18;;;;;;;1.30;1.10;;;11.40;98.00;;;;;;4976053;28;20459;-63
2023/11/07 12:19:45;;;;;;;1.20;1.00;;;11.40;98.00;;;;;;4976093;28;20451;-63
2023/11/07 12:22:13;;;;;;;2.03;1.10;;;11.50;98.00;;;;;;4984453;28;20456;-62
2023/11/07 12:24:41;;;;;;;1.33;1.20;;;11.50;98.00;;;;;;4995752;28;20984;-63
2023/11/07 12:27:10;;;;;;;1.30;1.10;;;11.60;98.00;;;;;;4995030;28;20467;-63
2023/11/07 12:29:38;;;;;;;1.60;1.30;;;11.70;98.00;;;;;;5013531;28;20535;-63
2023/11/07 12:32:05;;;;;;;1.30;1.10;;;11.80;98.00;;;;;;5015246;28;20466;-63
2023/11/07 12:34:33;;;;;;;1.20;1.10;;;11.80;98.00;;;;;;5014746;28;20503;-63
2023/11/07 12:37:03;;;;;;;1.30;1.20;;;12.00;98.00;;;;;;5014656;28;20454;-62
2023/11/07 12:39:31;;;;;;;3.33;1.20;;;12.00;98.00;;;;;;5014694;28;20454;-63
2023/11/07 12:41:59;;;;;;;1.83;1.20;;;12.00;98.00;;;;;;5014384;28;20514;-63
2023/11/07 12:44:28;;;;;;;1.63;1.20;;;12.10;98.00;;;;;;5014038;28;20909;-63
2023/11/07 12:46:57;;;;;;;1.40;1.30;;;12.10;98.00;;;;;;5014556;28;20465;-63
2023/11/07 12:49:24;;;;;;;1.73;1.30;;;12.10;98.00;;;;;;5014370;28;20837;-62
2023/11/07 12:51:53;;;;;;;1.20;1.00;;;12.10;98.00;;;;;;5014127;28;20472;-63
2023/11/07 12:54:26;;;;;;;1.60;1.37;;;12.00;98.00;;;;;;5014340;28;20480;-62
2023/11/07 12:56:54;;;;;;;1.30;1.10;;;12.10;98.00;;;;;;5013868;28;20501;-62
2023/11/07 12:59:21;;;;;;;5.57;1.50;;;12.20;98.00;;;;;;5013655;28;20518;-62
2023/11/07 13:01:49;;;;;;;6.53;1.30;;;12.20;98.00;;;;;;5013463;28;20461;-62